Terminal Aerodrome Forecast
Issued by NWS

Home | Current Version | Previous Version | Graphics & Text | Print | Product List | Glossary On
Versions: 1 2 3 4 5 6 7 8 9 10 11 12 13 14 15 16 17 18 19 20 21 22 23 24 25 26 27 28
000
FTUS43 KLOT 240520
TAFDPA
TAF
KDPA 240520Z 2406/2506 34004KT 5SM BR OVC200
     FM241000 05006KT 5SM BR OVC018
     FM241400 08011KT P6SM OVC015
     FM250000 11013G18KT 6SM -RA BR OVC008
     FM250300 14014G21KT 2SM -RA BR OVC003 WS020/19045KT
     FM250500 17014G21KT 2SM -RA BR OVC004 WS020/19045KT=

USA.gov is the U.S. government's official web portal to all federal, state and local government web resources and services.